createdAt,value
2023-04-18T00:00:17.701Z,59.50
2023-04-18T00:01:20.650Z,59.62
2023-04-18T00:02:23.872Z,59.58
2023-04-18T00:04:00.360Z,59.60
2023-04-18T00:05:05.480Z,59.34
2023-04-18T00:06:09.130Z,59.36
2023-04-18T00:07:43.723Z,59.57
2023-04-18T00:08:46.743Z,59.64
2023-04-18T00:09:49.877Z,59.27
2023-04-18T00:11:24.488Z,59.58
2023-04-18T00:12:27.570Z,59.65
2023-04-18T00:13:30.484Z,59.30
2023-04-18T00:15:05.339Z,59.72
2023-04-18T00:16:08.246Z,59.80
2023-04-18T00:17:11.695Z,59.87
2023-04-18T00:18:46.749Z,59.66
2023-04-18T00:19:49.882Z,60.01
2023-04-18T00:20:52.617Z,60.20
2023-04-18T00:22:27.142Z,59.88
2023-04-18T00:23:29.888Z,60.12
2023-04-18T00:24:32.513Z,59.59
2023-04-18T00:26:07.120Z,60.31
2023-04-18T00:27:10.047Z,60.19
2023-04-18T00:28:12.947Z,60.09
2023-04-18T00:29:47.658Z,60.41
2023-04-18T00:30:50.796Z,60.45
2023-04-18T00:31:54.271Z,60.93
2023-04-18T00:33:28.908Z,60.62
2023-04-18T00:34:31.693Z,60.59
2023-04-18T00:35:34.779Z,60.70
2023-04-18T00:37:09.175Z,60.76
2023-04-18T00:38:12.045Z,60.59
2023-04-18T00:39:14.887Z,60.70
2023-04-18T00:40:49.716Z,61.02
2023-04-18T00:41:52.596Z,61.30
2023-04-18T00:42:55.468Z,60.96
2023-04-18T00:44:30.327Z,61.46
2023-04-18T00:45:33.194Z,61.59
2023-04-18T00:46:36.470Z,61.48
2023-04-18T00:48:11.688Z,61.71
2023-04-18T00:49:14.705Z,61.33
2023-04-18T00:50:17.512Z,61.50
2023-04-18T00:51:52.053Z,61.81
2023-04-18T00:52:54.865Z,61.64
2023-04-18T00:53:57.606Z,62.00
2023-04-18T00:55:32.552Z,61.92
2023-04-18T00:56:35.424Z,61.90
2023-04-18T00:57:38.218Z,61.99
2023-04-18T00:59:12.919Z,62.13
2023-04-18T01:00:18.211Z,62.32
2023-04-18T01:01:21.310Z,62.09
2023-04-18T01:02:25.064Z,62.41
2023-04-18T01:04:01.425Z,62.38
2023-04-18T01:05:06.376Z,62.22
2023-04-18T01:06:09.501Z,62.57
2023-04-18T01:07:44.107Z,62.90
2023-04-18T01:08:47.310Z,62.69
2023-04-18T01:09:50.202Z,63.04
2023-04-18T01:11:24.669Z,62.89
2023-04-18T01:12:27.350Z,62.87
2023-04-18T01:13:30.057Z,63.34
2023-04-18T01:15:04.663Z,63.72
2023-04-18T01:16:07.693Z,63.59
2023-04-18T01:17:10.955Z,63.58
2023-04-18T01:18:45.759Z,63.76
2023-04-18T01:19:48.669Z,63.72
2023-04-18T01:20:51.780Z,63.78
2023-04-18T01:22:26.514Z,63.92
2023-04-18T01:23:29.357Z,63.88
2023-04-18T01:24:32.137Z,64.11
2023-04-18T01:26:06.646Z,64.06
2023-04-18T01:27:09.301Z,64.03
2023-04-18T01:28:11.964Z,64.23
2023-04-18T01:29:46.337Z,64.43
2023-04-18T01:30:49.261Z,64.36
2023-04-18T01:31:52.361Z,64.36
2023-04-18T01:33:27.043Z,64.29
2023-04-18T01:34:29.920Z,64.35
2023-04-18T01:35:32.881Z,64.24
2023-04-18T01:37:07.573Z,64.54
2023-04-18T01:38:10.542Z,64.63
2023-04-18T01:39:13.406Z,64.58
2023-04-18T01:40:48.239Z,64.87
2023-04-18T01:41:51.091Z,64.66
2023-04-18T01:42:54.024Z,64.82
2023-04-18T01:44:28.576Z,65.02
2023-04-18T01:45:31.324Z,64.80
2023-04-18T01:46:34.302Z,65.02
2023-04-18T01:48:09.447Z,65.11
2023-04-18T01:49:12.256Z,65.14
2023-04-18T01:50:15.175Z,65.26
2023-04-18T01:51:49.915Z,65.36
2023-04-18T01:52:52.770Z,65.22
2023-04-18T01:53:55.622Z,65.60
2023-04-18T01:55:30.849Z,65.57
2023-04-18T01:56:33.848Z,65.81
2023-04-18T01:57:36.674Z,65.74
2023-04-18T01:59:11.187Z,65.85
2023-04-18T02:00:17.826Z,65.68
2023-04-18T02:01:20.924Z,65.74
2023-04-18T02:02:24.528Z,65.92
2023-04-18T02:04:01.091Z,66.27
2023-04-18T02:05:04.634Z,66.18
2023-04-18T02:06:07.471Z,66.09
2023-04-18T02:07:42.519Z,66.18
2023-04-18T02:08:45.406Z,66.06
2023-04-18T02:09:48.433Z,66.39
2023-04-18T02:11:23.202Z,66.54
2023-04-18T02:12:26.114Z,66.56
2023-04-18T02:13:29.015Z,66.51
2023-04-18T02:15:03.682Z,66.39
2023-04-18T02:16:06.600Z,66.42
2023-04-18T02:17:09.810Z,66.41
2023-04-18T02:18:44.359Z,66.56
2023-04-18T02:19:47.261Z,66.65
2023-04-18T02:20:50.023Z,66.81
2023-04-18T02:22:24.614Z,66.67
2023-04-18T02:23:27.544Z,66.61
2023-04-18T02:24:30.600Z,66.92
2023-04-18T02:26:05.360Z,66.98
2023-04-18T02:27:08.262Z,66.99
2023-04-18T02:28:11.077Z,66.94
2023-04-18T02:29:45.924Z,67.01
2023-04-18T02:30:48.833Z,66.89
2023-04-18T02:31:51.795Z,67.06
2023-04-18T02:33:26.640Z,67.07
2023-04-18T02:34:29.402Z,67.04
2023-04-18T02:35:32.296Z,67.15
2023-04-18T02:37:06.787Z,67.32
2023-04-18T02:38:09.563Z,67.25
2023-04-18T02:39:12.327Z,67.22
2023-04-18T02:40:47.024Z,67.55
2023-04-18T02:41:50.025Z,67.83
2023-04-18T02:42:52.927Z,67.96
2023-04-18T02:44:28.021Z,67.88
2023-04-18T02:45:30.867Z,68.09
2023-04-18T02:46:34.152Z,68.08
2023-04-18T02:48:08.851Z,68.25
2023-04-18T02:49:12.151Z,68.26
2023-04-18T02:50:15.078Z,68.15
2023-04-18T02:51:49.888Z,68.34
2023-04-18T02:52:52.852Z,68.51
2023-04-18T02:53:55.784Z,68.28
2023-04-18T02:55:31.035Z,68.48
2023-04-18T02:56:33.824Z,68.32
2023-04-18T02:57:36.696Z,68.29
2023-04-18T02:59:11.443Z,68.05
2023-04-18T03:00:17.568Z,67.96
2023-04-18T03:01:20.529Z,68.12
2023-04-18T03:02:24.011Z,67.98
2023-04-18T03:03:59.933Z,68.09
2023-04-18T03:05:03.327Z,68.10
2023-04-18T03:06:06.329Z,67.95
2023-04-18T03:07:41.001Z,67.81
2023-04-18T03:08:43.768Z,68.01
2023-04-18T03:09:46.471Z,68.20
2023-04-18T03:11:21.007Z,68.12
2023-04-18T03:12:23.942Z,68.22
2023-04-18T03:13:26.752Z,68.24
2023-04-18T03:15:01.494Z,68.40
2023-04-18T03:16:04.691Z,68.31
2023-04-18T03:17:08.086Z,68.45
2023-04-18T03:18:43.134Z,68.31
2023-04-18T03:19:46.126Z,68.53
2023-04-18T03:20:49.049Z,68.55
2023-04-18T03:22:23.616Z,68.67
2023-04-18T03:23:26.467Z,68.74
2023-04-18T03:24:30.246Z,68.66
2023-04-18T03:26:04.892Z,68.57
2023-04-18T03:27:07.672Z,68.82
2023-04-18T03:28:10.494Z,68.80
2023-04-18T03:29:44.872Z,68.88
2023-04-18T03:30:47.752Z,68.90
2023-04-18T03:31:51.500Z,68.85
2023-04-18T03:33:26.189Z,68.75
2023-04-18T03:34:29.106Z,69.12
2023-04-18T03:35:31.987Z,69.22
2023-04-18T03:37:06.696Z,69.10
2023-04-18T03:38:09.674Z,69.37
2023-04-18T03:39:12.526Z,69.38
2023-04-18T03:40:46.911Z,69.52
2023-04-18T03:41:49.791Z,69.51
2023-04-18T03:42:52.536Z,69.20
2023-04-18T03:44:27.069Z,69.52
2023-04-18T03:45:29.903Z,69.73
2023-04-18T03:46:32.888Z,69.66
2023-04-18T03:48:08.077Z,69.78
2023-04-18T03:49:11.069Z,69.96
2023-04-18T03:50:14.263Z,70.05
2023-04-18T03:51:49.159Z,70.20
2023-04-18T03:52:51.990Z,70.15
2023-04-18T03:53:55.025Z,70.05
2023-04-18T03:55:29.977Z,70.24
2023-04-18T03:56:32.744Z,70.25
2023-04-18T03:57:35.613Z,70.37
2023-04-18T03:59:10.526Z,70.35
2023-04-18T04:00:17.962Z,70.58
2023-04-18T04:01:20.944Z,70.58
2023-04-18T04:02:24.428Z,70.85
2023-04-18T04:04:00.793Z,70.82
2023-04-18T04:05:48.905Z,71.12
2023-04-18T04:06:51.794Z,71.19
2023-04-18T04:07:54.624Z,71.35
2023-04-18T04:09:29.432Z,71.35
2023-04-18T04:10:32.305Z,71.46
2023-04-18T04:11:35.226Z,71.55
2023-04-18T04:13:09.883Z,71.71
2023-04-18T04:14:13.059Z,71.83
2023-04-18T04:15:16.435Z,71.85
2023-04-18T04:16:51.757Z,71.87
2023-04-18T04:17:54.618Z,71.86
2023-04-18T04:18:57.785Z,71.98
2023-04-18T04:20:32.490Z,72.12
2023-04-18T04:21:35.296Z,72.06
2023-04-18T04:22:38.077Z,72.05
2023-04-18T04:24:13.362Z,72.17
2023-04-18T04:25:16.441Z,72.18
2023-04-18T04:26:19.281Z,72.21
2023-04-18T04:27:53.850Z,72.30
2023-04-18T04:28:56.675Z,72.29
2023-04-18T04:29:59.496Z,72.31
2023-04-18T04:31:36.930Z,72.35
2023-04-18T04:32:40.218Z,72.53
2023-04-18T04:33:43.382Z,72.58
2023-04-18T04:35:18.190Z,72.65
2023-04-18T04:36:24.517Z,72.81
2023-04-18T04:37:27.394Z,72.90
2023-04-18T04:39:02.100Z,72.97
2023-04-18T04:40:05.021Z,73.00
2023-04-18T04:41:07.828Z,72.93
2023-04-18T04:42:42.427Z,72.94
2023-04-18T04:43:45.586Z,73.07
2023-04-18T04:44:48.781Z,73.32
2023-04-18T04:46:24.332Z,73.35
2023-04-18T04:47:27.321Z,73.41
2023-04-18T04:48:30.389Z,73.40
2023-04-18T04:50:05.084Z,73.55
2023-04-18T04:51:08.003Z,73.53
2023-04-18T04:52:10.833Z,73.55
2023-04-18T04:53:45.335Z,73.69
2023-04-18T04:54:48.143Z,73.74
2023-04-18T04:55:50.999Z,73.82
2023-04-18T04:57:25.431Z,73.87
2023-04-18T04:58:28.132Z,73.99
2023-04-18T04:59:30.831Z,73.94
2023-04-18T05:01:20.954Z,74.13
2023-04-18T05:02:24.687Z,74.13
2023-04-18T05:04:01.648Z,74.24
2023-04-18T05:05:06.979Z,74.28
2023-04-18T05:06:09.882Z,74.33
2023-04-18T05:07:44.743Z,74.39
2023-04-18T05:08:47.657Z,74.47
2023-04-18T05:09:50.364Z,74.46
2023-04-18T05:11:24.771Z,74.41
2023-04-18T05:12:27.476Z,74.60
2023-04-18T05:13:30.284Z,74.79
2023-04-18T05:15:04.784Z,74.73
2023-04-18T05:16:07.635Z,74.71
2023-04-18T05:17:10.798Z,75.12
2023-04-18T05:18:45.751Z,75.12
2023-04-18T05:19:48.974Z,75.04
2023-04-18T05:20:52.013Z,75.04
2023-04-18T05:22:26.659Z,75.11
2023-04-18T05:23:29.592Z,75.16
2023-04-18T05:24:32.694Z,75.10
2023-04-18T05:26:07.410Z,75.17
2023-04-18T05:27:10.218Z,75.20
2023-04-18T05:28:15.486Z,75.18
2023-04-18T05:29:50.152Z,75.25
2023-04-18T05:30:52.953Z,75.30
2023-04-18T05:31:55.998Z,75.35
2023-04-18T05:33:30.553Z,75.38
2023-04-18T05:34:33.409Z,75.45
2023-04-18T05:35:36.260Z,75.48
2023-04-18T05:37:10.897Z,75.52
2023-04-18T05:38:13.797Z,75.51
2023-04-18T05:39:16.867Z,75.41
2023-04-18T05:40:51.580Z,75.48
2023-04-18T05:41:54.690Z,75.54
2023-04-18T05:42:57.510Z,75.63
2023-04-18T05:44:46.060Z,75.70
2023-04-18T05:45:48.862Z,75.86
2023-04-18T05:46:55.035Z,75.95
2023-04-18T05:48:29.505Z,75.84
2023-04-18T05:49:32.196Z,75.84
2023-04-18T05:50:34.928Z,75.82
2023-04-18T05:52:09.620Z,76.00
2023-04-18T05:53:12.510Z,75.94
2023-04-18T05:54:15.595Z,76.10
2023-04-18T05:55:50.638Z,76.10
2023-04-18T05:56:53.528Z,76.12
2023-04-18T05:57:56.732Z,76.07
2023-04-18T05:59:31.372Z,76.03
2023-04-18T06:01:20.171Z,75.94
2023-04-18T06:02:23.355Z,76.02
2023-04-18T06:03:59.859Z,76.08
2023-04-18T06:05:04.756Z,76.05
2023-04-18T06:06:09.665Z,76.08
2023-04-18T06:07:44.332Z,76.12
2023-04-18T06:08:47.221Z,76.08
2023-04-18T06:09:50.169Z,75.93
2023-04-18T06:11:24.869Z,75.87
2023-04-18T06:12:27.780Z,75.86
2023-04-18T06:13:30.726Z,75.82
2023-04-18T06:15:05.308Z,75.62
2023-04-18T06:16:08.165Z,75.37
2023-04-18T06:17:11.382Z,75.51
2023-04-18T06:18:46.030Z,75.00
2023-04-18T06:19:52.756Z,75.02
2023-04-18T06:20:55.939Z,75.12
2023-04-18T06:22:30.589Z,75.34
2023-04-18T06:23:33.347Z,75.32
2023-04-18T06:24:37.016Z,75.40
2023-04-18T06:26:12.105Z,75.33
2023-04-18T06:27:31.554Z,75.41
2023-04-18T06:28:35.074Z,75.50
2023-04-18T06:30:09.759Z,75.57
2023-04-18T06:31:12.698Z,75.57
2023-04-18T06:32:15.992Z,75.36
2023-04-18T06:33:50.947Z,75.71
2023-04-18T06:34:54.203Z,75.71
2023-04-18T06:35:57.215Z,75.63
2023-04-18T06:37:31.611Z,75.62
2023-04-18T06:38:34.438Z,75.34
2023-04-18T06:39:37.283Z,75.39
2023-04-18T06:41:11.869Z,75.17
2023-04-18T06:42:14.660Z,75.16
2023-04-18T06:43:19.737Z,75.15
2023-04-18T06:45:14.211Z,74.89
2023-04-18T06:46:17.685Z,74.71
2023-04-18T06:47:21.138Z,74.42
2023-04-18T06:48:57.256Z,74.00
2023-04-18T06:50:06.764Z,74.02
2023-04-18T06:51:09.720Z,73.92
2023-04-18T06:52:44.468Z,73.82
2023-04-18T06:53:47.230Z,73.86
2023-04-18T06:54:50.132Z,73.77
2023-04-18T06:56:24.843Z,73.85
2023-04-18T06:57:28.368Z,73.76
2023-04-18T06:58:31.384Z,73.93
2023-04-18T07:00:17.407Z,74.08
2023-04-18T07:01:20.750Z,74.30
2023-04-18T07:02:24.139Z,74.37
2023-04-18T07:04:00.082Z,74.44
2023-04-18T07:05:04.336Z,74.28
2023-04-18T07:06:07.236Z,74.48
2023-04-18T07:07:41.797Z,74.04
2023-04-18T07:08:44.823Z,73.83
2023-04-18T07:09:49.986Z,73.77
2023-04-18T07:11:24.522Z,73.61
2023-04-18T07:12:27.402Z,73.20
2023-04-18T07:13:30.314Z,73.22
2023-04-18T07:15:04.891Z,73.00
2023-04-18T07:16:07.731Z,73.12
2023-04-18T07:17:11.135Z,73.32
2023-04-18T07:18:46.747Z,73.14
2023-04-18T07:19:49.538Z,72.84
2023-04-18T07:20:54.763Z,72.77
2023-04-18T07:22:29.379Z,72.76
2023-04-18T07:23:32.183Z,72.61
2023-04-18T07:24:35.127Z,72.49
2023-04-18T07:26:09.957Z,72.50
2023-04-18T07:27:12.705Z,72.62
2023-04-18T07:28:15.534Z,72.53
2023-04-18T07:29:50.081Z,72.36
2023-04-18T07:30:53.127Z,72.37
2023-04-18T07:31:56.400Z,72.22
2023-04-18T07:33:32.458Z,72.14
2023-04-18T07:34:35.604Z,72.41
2023-04-18T07:35:38.525Z,72.47
2023-04-18T07:37:14.926Z,72.28
2023-04-18T07:38:18.128Z,72.09
2023-04-18T07:39:21.010Z,71.90
2023-04-18T07:40:55.819Z,71.74
2023-04-18T07:41:58.883Z,71.55
2023-04-18T07:43:01.826Z,71.20
2023-04-18T07:44:38.770Z,71.04
2023-04-18T07:45:41.569Z,70.84
2023-04-18T07:46:44.922Z,70.70
2023-04-18T07:48:19.756Z,71.11
2023-04-18T07:49:22.756Z,71.31
2023-04-18T07:50:25.514Z,71.41
2023-04-18T07:52:00.174Z,71.52
2023-04-18T07:53:03.062Z,71.41
2023-04-18T07:54:05.987Z,71.66
2023-04-18T07:55:40.737Z,71.50
2023-04-18T07:56:43.706Z,71.56
2023-04-18T07:57:47.594Z,71.63
2023-04-18T07:59:22.747Z,72.04
2023-04-18T08:00:17.907Z,71.87
2023-04-18T08:01:20.635Z,71.92
2023-04-18T08:02:23.946Z,71.98
2023-04-18T08:04:01.104Z,72.28
2023-04-18T08:05:07.231Z,72.18
2023-04-18T08:06:10.641Z,72.44
2023-04-18T08:07:45.287Z,72.77
2023-04-18T08:08:48.309Z,72.52
2023-04-18T08:09:51.327Z,72.54
2023-04-18T08:11:26.547Z,72.57
2023-04-18T08:12:29.684Z,72.30
2023-04-18T08:13:32.981Z,72.39
2023-04-18T08:15:08.019Z,72.43
2023-04-18T08:16:10.973Z,72.60
2023-04-18T08:17:15.263Z,72.56
2023-04-18T08:18:50.156Z,72.02
2023-04-18T08:19:53.390Z,71.53
2023-04-18T08:20:56.269Z,71.54
2023-04-18T08:22:30.776Z,70.94
2023-04-18T08:23:59.575Z,71.07
2023-04-18T08:25:10.910Z,70.75
2023-04-18T08:26:45.709Z,71.06
2023-04-18T08:27:48.616Z,71.25
2023-04-18T08:28:52.422Z,71.22
2023-04-18T08:30:27.607Z,70.99
2023-04-18T08:31:30.845Z,71.17
2023-04-18T08:32:34.343Z,71.14
2023-04-18T08:34:10.934Z,71.10
2023-04-18T08:35:13.694Z,70.86
2023-04-18T08:36:16.518Z,71.11
2023-04-18T08:37:50.944Z,71.09
2023-04-18T08:38:53.751Z,71.27
2023-04-18T08:39:56.796Z,71.12
2023-04-18T08:41:31.365Z,71.28
2023-04-18T08:42:34.218Z,71.38
2023-04-18T08:43:37.362Z,71.25
2023-04-18T08:45:15.112Z,70.52
2023-04-18T08:46:18.393Z,70.85
2023-04-18T08:47:21.524Z,70.67
2023-04-18T08:48:56.401Z,70.95
2023-04-18T08:50:00.670Z,70.66
2023-04-18T08:51:03.788Z,70.58
2023-04-18T08:52:38.340Z,70.45
2023-04-18T08:53:41.136Z,70.52
2023-04-18T08:54:44.239Z,70.49
2023-04-18T08:56:18.949Z,70.67
2023-04-18T08:57:21.801Z,70.77
2023-04-18T08:58:24.578Z,70.70
2023-04-18T08:59:59.643Z,70.73
2023-04-18T09:00:17.643Z,70.73
2023-04-18T09:01:20.607Z,70.80
2023-04-18T09:02:23.907Z,70.84
2023-04-18T09:03:59.706Z,70.62
2023-04-18T09:05:02.889Z,70.75
2023-04-18T09:06:05.959Z,70.61
2023-04-18T09:07:40.915Z,69.36
2023-04-18T09:08:43.983Z,69.35
2023-04-18T09:09:46.761Z,69.91
2023-04-18T09:11:21.465Z,69.77
2023-04-18T09:12:24.303Z,69.48
2023-04-18T09:13:30.122Z,69.45
2023-04-18T09:15:04.820Z,69.66
2023-04-18T09:16:07.991Z,69.41
2023-04-18T09:17:11.709Z,69.08
2023-04-18T09:18:46.595Z,69.31
2023-04-18T09:19:53.794Z,69.27
2023-04-18T09:20:57.140Z,69.09
2023-04-18T09:22:32.117Z,69.08
2023-04-18T09:23:37.371Z,68.89
2023-04-18T09:24:40.287Z,68.71
2023-04-18T09:26:14.930Z,68.26
2023-04-18T09:27:17.757Z,68.33
2023-04-18T09:28:20.557Z,68.42
2023-04-18T09:29:57.757Z,68.36
2023-04-18T09:31:01.018Z,68.02
2023-04-18T09:32:04.294Z,68.16
2023-04-18T09:33:40.317Z,68.52
2023-04-18T09:34:43.237Z,68.10
2023-04-18T09:35:48.878Z,68.46
2023-04-18T09:37:23.643Z,68.74
2023-04-18T09:38:26.718Z,68.60
2023-04-18T09:39:29.575Z,68.80
2023-04-18T09:41:04.324Z,68.52
2023-04-18T09:42:07.722Z,68.52
2023-04-18T09:43:14.374Z,68.64
2023-04-18T09:44:48.953Z,68.26
2023-04-18T09:45:54.265Z,68.02
2023-04-18T09:46:57.300Z,67.90
2023-04-18T09:48:31.990Z,67.66
2023-04-18T09:49:34.919Z,67.61
2023-04-18T09:50:37.732Z,67.61
2023-04-18T09:52:12.436Z,67.92
2023-04-18T09:53:15.263Z,67.76
2023-04-18T09:54:19.253Z,67.68
2023-04-18T09:55:55.543Z,67.42
2023-04-18T09:57:00.017Z,67.39
2023-04-18T09:58:02.953Z,67.70
2023-04-18T09:59:37.651Z,67.69
2023-04-18T10:01:20.134Z,66.88
2023-04-18T10:02:23.381Z,67.27
2023-04-18T10:03:59.222Z,67.54
2023-04-18T10:05:03.122Z,67.01
2023-04-18T10:06:07.665Z,66.96
2023-04-18T10:07:42.560Z,67.29
2023-04-18T10:08:45.632Z,66.83
2023-04-18T10:09:48.517Z,67.05
2023-04-18T10:11:25.817Z,67.42
2023-04-18T10:12:28.713Z,66.80
2023-04-18T10:13:31.866Z,66.20
2023-04-18T10:15:06.592Z,66.27
2023-04-18T10:16:09.569Z,66.39
2023-04-18T10:17:15.354Z,66.56
2023-04-18T10:19:08.852Z,66.19
2023-04-18T10:20:12.190Z,66.28
2023-04-18T10:21:15.816Z,66.06
2023-04-18T10:22:50.217Z,65.87
2023-04-18T10:23:53.069Z,65.96
2023-04-18T10:24:56.279Z,65.82
2023-04-18T10:26:31.339Z,65.69
2023-04-18T10:27:34.378Z,65.87
2023-04-18T10:28:39.365Z,66.16
2023-04-18T10:30:15.349Z,66.40
2023-04-18T10:31:18.381Z,66.40
2023-04-18T10:32:21.452Z,66.67
2023-04-18T10:34:11.995Z,66.30
2023-04-18T10:35:14.897Z,66.49
2023-04-18T10:36:20.158Z,66.45
2023-04-18T10:37:54.836Z,66.65
2023-04-18T10:38:57.674Z,66.48
2023-04-18T10:40:00.935Z,66.45
2023-04-18T10:41:35.695Z,66.86
2023-04-18T10:42:40.599Z,66.77
2023-04-18T10:43:43.632Z,66.67
2023-04-18T10:45:20.757Z,66.35
2023-04-18T10:46:37.852Z,66.48
2023-04-18T10:47:41.951Z,66.39
2023-04-18T10:49:19.473Z,66.09
2023-04-18T10:50:25.695Z,66.07
2023-04-18T10:51:28.462Z,66.39
2023-04-18T10:53:03.211Z,66.59
2023-04-18T10:54:05.996Z,66.46
2023-04-18T10:55:09.079Z,66.41
2023-04-18T10:56:43.613Z,66.20
2023-04-18T10:57:46.560Z,65.22
2023-04-18T10:58:49.415Z,64.57
2023-04-18T11:00:17.134Z,63.69
2023-04-18T11:01:20.637Z,62.43
2023-04-18T11:02:26.470Z,62.01
2023-04-18T11:04:02.976Z,62.53
2023-04-18T11:05:07.525Z,62.57
2023-04-18T11:06:10.874Z,62.64
2023-04-18T11:07:47.133Z,63.05
2023-04-18T11:08:50.123Z,63.60
2023-04-18T11:09:52.946Z,63.47
2023-04-18T11:11:27.581Z,62.00
2023-04-18T11:12:31.111Z,62.54
2023-04-18T11:13:33.966Z,61.67
2023-04-18T11:15:08.688Z,61.03
2023-04-18T11:16:11.883Z,61.15
2023-04-18T11:17:15.226Z,61.58
2023-04-18T11:18:50.282Z,60.45
2023-04-18T11:19:53.259Z,60.28
2023-04-18T11:20:56.192Z,60.44
2023-04-18T11:22:30.910Z,60.94
2023-04-18T11:23:33.796Z,61.28
2023-04-18T11:24:36.664Z,61.63
2023-04-18T11:26:11.241Z,61.86
2023-04-18T11:27:15.577Z,62.30
2023-04-18T11:28:18.674Z,62.04
2023-04-18T11:29:53.189Z,62.01
2023-04-18T11:30:56.063Z,61.85
2023-04-18T11:32:03.297Z,62.52
2023-04-18T11:33:38.604Z,62.64
2023-04-18T11:34:41.624Z,62.46
2023-04-18T11:35:44.671Z,62.35
2023-04-18T11:37:19.377Z,62.79
2023-04-18T11:38:24.303Z,62.97
2023-04-18T11:39:27.350Z,63.15
2023-04-18T11:41:01.959Z,62.89
2023-04-18T11:42:04.879Z,63.52
2023-04-18T11:43:07.736Z,63.81
2023-04-18T11:44:42.338Z,64.43
2023-04-18T11:45:45.241Z,64.67
2023-04-18T11:46:48.456Z,64.65
2023-04-18T11:48:23.518Z,64.68
2023-04-18T11:49:26.417Z,64.28
2023-04-18T11:50:29.433Z,64.02
2023-04-18T11:52:04.236Z,64.68
2023-04-18T11:53:07.259Z,64.94
2023-04-18T11:54:10.238Z,65.08
2023-04-18T11:55:45.190Z,65.01
2023-04-18T11:56:48.273Z,65.10
2023-04-18T11:57:51.019Z,65.13
2023-04-18T11:59:25.533Z,65.24
2023-04-18T12:01:19.775Z,64.98
2023-04-18T12:02:23.113Z,65.23
2023-04-18T12:03:59.763Z,64.86
2023-04-18T12:05:05.810Z,65.11
2023-04-18T12:06:11.329Z,64.76
2023-04-18T12:07:46.782Z,64.71
2023-04-18T12:08:49.692Z,64.25
2023-04-18T12:09:52.422Z,63.82
2023-04-18T12:11:27.281Z,63.67
2023-04-18T12:12:30.180Z,63.34
2023-04-18T12:13:32.960Z,63.16
2023-04-18T12:15:07.516Z,63.59
2023-04-18T12:16:10.420Z,63.57
2023-04-18T12:17:13.418Z,63.46
2023-04-18T12:18:48.080Z,63.89
2023-04-18T12:19:52.565Z,63.89
2023-04-18T12:20:55.704Z,63.49
2023-04-18T12:22:30.409Z,64.18
2023-04-18T12:23:33.355Z,64.19
2023-04-18T12:24:36.404Z,64.15
2023-04-18T12:26:11.201Z,64.50
2023-04-18T12:27:14.156Z,64.64
2023-04-18T12:28:17.076Z,64.42
2023-04-18T12:29:51.807Z,64.33
2023-04-18T12:30:54.697Z,63.92
2023-04-18T12:31:58.649Z,63.94
2023-04-18T12:33:33.285Z,63.93
2023-04-18T12:34:36.198Z,64.28
2023-04-18T12:35:39.211Z,63.15
2023-04-18T12:37:13.726Z,62.06
2023-04-18T12:38:16.660Z,62.70
2023-04-18T12:39:19.605Z,61.00
2023-04-18T12:40:54.406Z,60.38
2023-04-18T12:41:57.345Z,60.66
2023-04-18T12:43:02.941Z,61.20
2023-04-18T12:44:38.459Z,61.17
2023-04-18T12:45:44.281Z,61.33
2023-04-18T12:46:47.327Z,61.63
2023-04-18T12:48:22.468Z,61.74
2023-04-18T12:49:25.170Z,61.33
2023-04-18T12:50:27.975Z,61.19
2023-04-18T12:52:02.552Z,60.40
2023-04-18T12:53:05.517Z,60.25
2023-04-18T12:54:08.249Z,60.20
2023-04-18T12:55:43.398Z,60.46
2023-04-18T12:56:46.323Z,60.03
2023-04-18T12:57:49.248Z,59.60
2023-04-18T12:59:24.014Z,59.79
2023-04-18T13:01:21.363Z,58.60
2023-04-18T13:02:24.918Z,58.70
2023-04-18T13:04:18.108Z,58.78
2023-04-18T13:05:22.867Z,59.27
2023-04-18T13:06:30.538Z,58.45
2023-04-18T13:08:22.906Z,58.19
2023-04-18T13:09:25.665Z,58.76
2023-04-18T13:10:28.517Z,58.34
2023-04-18T13:12:03.278Z,58.58
2023-04-18T13:13:06.160Z,58.71
2023-04-18T13:14:09.225Z,58.54
2023-04-18T13:15:44.383Z,58.30
2023-04-18T13:16:49.861Z,58.34
2023-04-18T13:17:53.569Z,58.70
2023-04-18T13:19:28.696Z,58.90
2023-04-18T13:20:31.604Z,58.38
2023-04-18T13:21:34.613Z,57.37
2023-04-18T13:23:11.797Z,57.07
2023-04-18T13:24:14.663Z,56.29
2023-04-18T13:25:17.439Z,56.32
2023-04-18T13:26:51.969Z,56.02
2023-04-18T13:27:54.731Z,55.70
2023-04-18T13:28:57.669Z,55.73
2023-04-18T13:30:32.735Z,56.04
2023-04-18T13:31:35.728Z,55.64
2023-04-18T13:32:39.163Z,55.32
2023-04-18T13:34:14.306Z,55.81
2023-04-18T13:35:17.610Z,56.00
2023-04-18T13:36:21.078Z,56.52
2023-04-18T13:37:58.078Z,57.30
2023-04-18T13:39:00.893Z,56.68
2023-04-18T13:40:03.766Z,56.63
2023-04-18T13:41:38.456Z,56.21
2023-04-18T13:42:41.409Z,56.39
2023-04-18T13:43:44.249Z,56.02
2023-04-18T13:45:18.759Z,55.61
2023-04-18T13:46:21.880Z,55.71
2023-04-18T13:47:25.324Z,55.67
2023-04-18T13:49:00.409Z,55.74
2023-04-18T13:50:03.790Z,55.36
2023-04-18T13:51:06.811Z,55.52
2023-04-18T13:52:41.444Z,55.10
2023-04-18T13:53:44.344Z,55.40
2023-04-18T13:54:47.263Z,54.90
2023-04-18T13:56:21.957Z,54.12
2023-04-18T13:57:24.811Z,53.55
2023-04-18T13:58:27.671Z,53.08
2023-04-18T14:00:16.838Z,53.98
2023-04-18T14:01:19.839Z,53.48
2023-04-18T14:02:23.426Z,53.81
2023-04-18T14:04:00.132Z,53.51
2023-04-18T14:05:05.147Z,53.67
2023-04-18T14:06:08.422Z,52.91
2023-04-18T14:07:43.300Z,53.15
2023-04-18T14:08:46.293Z,53.74
2023-04-18T14:09:50.101Z,53.17
2023-04-18T14:11:25.929Z,53.32
2023-04-18T14:12:28.767Z,53.82
2023-04-18T14:13:31.645Z,54.22
2023-04-18T14:15:06.371Z,55.27
2023-04-18T14:16:09.385Z,55.23
2023-04-18T14:17:13.054Z,55.38
2023-04-18T14:18:48.068Z,56.37
2023-04-18T14:19:50.901Z,56.18
2023-04-18T14:20:53.969Z,56.12
2023-04-18T14:22:28.565Z,55.73
2023-04-18T14:23:33.696Z,55.11
2023-04-18T14:24:36.665Z,54.63
2023-04-18T14:26:11.433Z,54.68
2023-04-18T14:27:14.273Z,53.61
2023-04-18T14:28:17.246Z,54.02
2023-04-18T14:29:51.848Z,53.91
2023-04-18T14:30:55.061Z,53.31
2023-04-18T14:31:58.179Z,52.76
2023-04-18T14:33:32.853Z,53.33
2023-04-18T14:34:39.001Z,53.16
2023-04-18T14:35:41.705Z,52.57
2023-04-18T14:37:17.689Z,53.29
2023-04-18T14:38:20.648Z,53.22
2023-04-18T14:39:23.568Z,52.78
2023-04-18T14:40:58.848Z,51.72
2023-04-18T14:42:01.832Z,52.65
2023-04-18T14:43:04.756Z,53.41
2023-04-18T14:44:39.518Z,51.28
2023-04-18T14:45:42.468Z,51.19
2023-04-18T14:46:46.041Z,51.50
2023-04-18T14:48:21.201Z,51.52
2023-04-18T14:49:24.134Z,52.05
2023-04-18T14:50:26.966Z,52.66
2023-04-18T14:52:01.678Z,52.12
2023-04-18T14:53:04.516Z,53.39
2023-04-18T14:54:07.369Z,53.46
2023-04-18T14:55:44.873Z,53.00
2023-04-18T14:56:47.856Z,53.84
2023-04-18T14:57:50.856Z,53.90
2023-04-18T14:59:26.273Z,53.07
2023-04-18T15:01:20.434Z,52.88
2023-04-18T15:02:23.941Z,52.95
2023-04-18T15:04:01.234Z,53.81
2023-04-18T15:05:06.471Z,52.87
2023-04-18T15:06:09.454Z,52.50
2023-04-18T15:07:44.063Z,52.70
2023-04-18T15:08:47.010Z,51.76
2023-04-18T15:09:49.752Z,51.50
2023-04-18T15:11:24.645Z,51.59
2023-04-18T15:12:27.709Z,51.83
2023-04-18T15:13:30.564Z,52.31
2023-04-18T15:15:05.376Z,52.85
2023-04-18T15:16:08.460Z,52.67
2023-04-18T15:17:11.692Z,53.08
2023-04-18T15:18:46.495Z,53.04
2023-04-18T15:19:49.325Z,52.55
2023-04-18T15:20:52.138Z,53.36
2023-04-18T15:22:26.645Z,52.34
2023-04-18T15:23:29.591Z,52.60
2023-04-18T15:24:32.502Z,52.73
2023-04-18T15:26:07.216Z,52.31
2023-04-18T15:27:12.793Z,52.10
2023-04-18T15:28:15.678Z,52.44
2023-04-18T15:29:50.439Z,52.74
2023-04-18T15:30:53.314Z,52.98
2023-04-18T15:31:56.638Z,52.65
2023-04-18T15:33:31.985Z,52.77
2023-04-18T15:34:34.929Z,53.26
2023-04-18T15:35:37.888Z,53.35
2023-04-18T15:37:12.402Z,53.12
2023-04-18T15:38:15.263Z,52.68
2023-04-18T15:39:19.352Z,52.57
2023-04-18T15:40:54.150Z,52.27
2023-04-18T15:41:57.081Z,51.82
2023-04-18T15:43:00.010Z,51.95
2023-04-18T15:44:34.677Z,51.91
2023-04-18T15:45:37.658Z,51.57
2023-04-18T15:46:41.101Z,51.75
2023-04-18T15:48:15.943Z,51.90
2023-04-18T15:49:19.043Z,52.30
2023-04-18T15:50:22.300Z,52.57
2023-04-18T15:51:57.560Z,52.63
2023-04-18T15:53:00.472Z,52.84
2023-04-18T15:54:03.264Z,52.78
2023-04-18T15:55:38.341Z,52.97
2023-04-18T15:56:41.092Z,53.01